createdAt,value
2019-05-29T00:00:09.895Z,10.70
2019-05-29T00:03:18.727Z,10.70
2019-05-29T00:06:27.399Z,10.70
2019-05-29T00:09:46.305Z,10.60
2019-05-29T00:12:55.027Z,10.50
2019-05-29T00:16:03.828Z,10.50
2019-05-29T00:19:12.711Z,10.60
2019-05-29T00:22:21.693Z,10.60
2019-05-29T00:25:41.832Z,10.50
2019-05-29T00:28:50.354Z,10.50
2019-05-29T00:31:58.882Z,10.50
2019-05-29T00:35:17.981Z,10.30
2019-05-29T00:38:36.918Z,10.30
2019-05-29T00:41:45.549Z,10.40
2019-05-29T00:44:54.152Z,10.40
2019-05-29T00:48:02.833Z,10.30
2019-05-29T00:51:11.595Z,10.30
2019-05-29T00:54:20.198Z,10.20
2019-05-29T00:57:28.873Z,10.30
2019-05-29T01:00:37.683Z,10.30
2019-05-29T01:03:46.200Z,10.30
2019-05-29T01:07:05.022Z,10.30
2019-05-29T01:10:14.686Z,10.00
2019-05-29T01:13:23.732Z,10.00
2019-05-29T01:16:32.337Z,9.90
2019-05-29T01:19:39.658Z,10.00
2019-05-29T01:22:48.206Z,9.90
2019-05-29T01:25:56.812Z,10.00
2019-05-29T01:29:15.619Z,10.00
2019-05-29T01:32:24.272Z,10.00
2019-05-29T01:35:32.896Z,10.00
2019-05-29T01:38:41.550Z,10.00
2019-05-29T01:41:50.235Z,10.00
2019-05-29T01:45:07.864Z,10.10
2019-05-29T01:48:09.248Z,10.00
2019-05-29T01:51:17.750Z,10.00
2019-05-29T01:54:26.402Z,10.00
2019-05-29T01:57:46.305Z,9.80
2019-05-29T02:00:54.919Z,9.90
2019-05-29T02:04:03.566Z,9.70
2019-05-29T02:07:11.341Z,9.60
2019-05-29T02:10:20.300Z,9.50
2019-05-29T02:13:29.223Z,9.60
2019-05-29T02:16:37.802Z,9.70
2019-05-29T02:19:46.554Z,9.80
2019-05-29T02:22:55.455Z,9.90
2019-05-29T02:26:04.180Z,9.70
2019-05-29T02:29:12.832Z,9.70
2019-05-29T02:32:21.422Z,9.60
2019-05-29T02:35:30.023Z,9.50
2019-05-29T02:38:38.853Z,9.60
2019-05-29T02:41:47.557Z,9.60
2019-05-29T02:44:56.163Z,9.60
2019-05-29T02:48:15.028Z,9.70
2019-05-29T02:51:24.277Z,9.80
2019-05-29T02:54:33.012Z,9.70
2019-05-29T02:57:52.028Z,9.70
2019-05-29T03:01:00.911Z,9.70
2019-05-29T03:04:09.520Z,9.80
2019-05-29T03:07:18.217Z,9.90
2019-05-29T03:10:26.912Z,10.00
2019-05-29T03:13:35.581Z,10.10
2019-05-29T03:16:44.244Z,10.00
2019-05-29T03:19:52.953Z,10.00
2019-05-29T03:23:01.570Z,10.00
2019-05-29T03:26:10.183Z,10.00
2019-05-29T03:29:18.859Z,10.00
2019-05-29T03:32:30.469Z,10.10
2019-05-29T03:35:48.794Z,10.10
2019-05-29T03:38:57.914Z,10.20
2019-05-29T03:42:06.544Z,10.20
2019-05-29T03:45:16.649Z,10.20
2019-05-29T03:48:25.945Z,10.10
2019-05-29T03:51:37.210Z,10.10
2019-05-29T03:54:46.592Z,10.20
2019-05-29T03:57:55.343Z,10.20
2019-05-29T04:01:04.146Z,10.30
2019-05-29T04:04:12.758Z,10.30
2019-05-29T04:07:21.490Z,10.30
2019-05-29T04:10:32.849Z,10.30
2019-05-29T04:13:41.486Z,10.40
2019-05-29T04:16:59.335Z,10.40
2019-05-29T04:20:02.374Z,10.50
2019-05-29T04:23:10.934Z,10.50
2019-05-29T04:26:21.190Z,10.60
2019-05-29T04:29:30.124Z,10.60
2019-05-29T04:32:38.858Z,10.50
2019-05-29T04:35:47.636Z,10.60
2019-05-29T04:38:56.444Z,10.60
2019-05-29T04:42:05.199Z,10.60
2019-05-29T04:45:14.121Z,10.70
2019-05-29T04:48:24.246Z,10.80
2019-05-29T04:51:33.120Z,10.80
2019-05-29T04:54:41.918Z,10.90
2019-05-29T04:57:51.097Z,11.00
2019-05-29T05:00:59.894Z,11.10
2019-05-29T05:04:08.524Z,11.10
2019-05-29T05:07:17.169Z,11.10
2019-05-29T05:10:41.428Z,11.20
2019-05-29T05:13:50.349Z,11.20
2019-05-29T05:17:00.518Z,11.30
2019-05-29T05:20:19.318Z,11.40
2019-05-29T05:23:28.002Z,11.40
2019-05-29T05:26:36.819Z,11.40
2019-05-29T05:29:45.572Z,11.60
2019-05-29T05:32:54.233Z,11.80
2019-05-29T05:36:01.417Z,11.90
2019-05-29T05:39:10.285Z,12.10
2019-05-29T05:42:19.992Z,12.50
2019-05-29T05:45:28.592Z,12.90
2019-05-29T05:48:47.463Z,13.30
2019-05-29T05:51:56.089Z,13.60
2019-05-29T05:55:04.872Z,14.20
2019-05-29T05:58:13.546Z,14.30
2019-05-29T06:01:22.168Z,14.40
2019-05-29T06:04:31.810Z,13.90
2019-05-29T06:07:50.755Z,13.90
2019-05-29T06:11:01.053Z,14.10
2019-05-29T06:14:09.768Z,14.40
2019-05-29T06:17:21.792Z,14.90
2019-05-29T06:20:28.866Z,15.00
2019-05-29T06:23:38.952Z,15.30
2019-05-29T06:26:47.606Z,15.40
2019-05-29T06:29:56.243Z,15.10
2019-05-29T06:33:05.049Z,14.90
2019-05-29T06:36:13.634Z,14.70
2019-05-29T06:39:22.563Z,14.80
2019-05-29T06:42:31.207Z,15.00
2019-05-29T06:45:40.104Z,15.00
2019-05-29T06:49:01.053Z,15.10
2019-05-29T06:52:19.816Z,14.80
2019-05-29T06:55:28.541Z,14.60
2019-05-29T06:58:38.091Z,14.60
2019-05-29T07:01:47.673Z,14.70
2019-05-29T07:04:56.405Z,14.80
2019-05-29T07:08:18.317Z,14.80
2019-05-29T07:11:14.142Z,14.60
2019-05-29T07:14:23.157Z,14.50
2019-05-29T07:17:32.992Z,14.40
2019-05-29T07:20:42.704Z,14.30
2019-05-29T07:23:51.708Z,14.30
2019-05-29T07:27:00.281Z,14.30
2019-05-29T07:30:09.935Z,14.50
2019-05-29T07:33:19.052Z,14.60
2019-05-29T07:36:28.829Z,14.80
2019-05-29T07:39:37.459Z,14.90
2019-05-29T07:42:53.673Z,14.90
2019-05-29T07:45:56.413Z,14.80
2019-05-29T07:49:05.048Z,14.70
2019-05-29T07:52:23.928Z,14.40
2019-05-29T07:55:43.164Z,14.30
2019-05-29T07:59:01.540Z,14.30
2019-05-29T08:02:02.284Z,14.30
2019-05-29T08:05:13.184Z,14.40
2019-05-29T08:08:32.140Z,14.30
2019-05-29T08:11:41.513Z,14.40
2019-05-29T08:14:51.882Z,14.50
2019-05-29T08:18:00.656Z,14.50
2019-05-29T08:21:19.415Z,14.30
2019-05-29T08:24:28.079Z,14.10
2019-05-29T08:27:36.727Z,14.00
2019-05-29T08:30:51.364Z,14.10
2019-05-29T08:33:56.269Z,14.30
2019-05-29T08:37:07.301Z,14.30
2019-05-29T08:40:14.571Z,14.40
2019-05-29T08:43:23.170Z,14.30
2019-05-29T08:47:00.727Z,14.40
2019-05-29T08:49:54.421Z,14.60
2019-05-29T08:53:13.148Z,14.60
2019-05-29T08:56:21.703Z,14.80
2019-05-29T08:59:30.340Z,15.00
2019-05-29T09:02:38.867Z,15.20
2019-05-29T09:06:04.298Z,15.30
2019-05-29T09:08:57.795Z,15.20
2019-05-29T09:12:16.583Z,15.00
2019-05-29T09:15:25.296Z,14.90
2019-05-29T09:18:34.024Z,14.70
2019-05-29T09:21:42.625Z,14.60
2019-05-29T09:24:51.528Z,14.50
2019-05-29T09:28:00.165Z,14.60
2019-05-29T09:31:08.844Z,14.70
2019-05-29T09:34:18.761Z,14.80
2019-05-29T09:37:28.259Z,14.80
2019-05-29T09:40:37.084Z,15.10
2019-05-29T09:43:58.152Z,15.30
2019-05-29T09:46:56.056Z,15.40
2019-05-29T09:50:07.748Z,15.50
2019-05-29T09:53:16.390Z,15.60
2019-05-29T09:56:25.049Z,15.70
2019-05-29T09:59:43.820Z,15.90
2019-05-29T10:02:52.796Z,15.70
2019-05-29T10:06:04.069Z,15.70
2019-05-29T10:09:16.182Z,15.70
2019-05-29T10:12:24.402Z,15.70
2019-05-29T10:15:33.027Z,15.80
2019-05-29T10:18:52.260Z,15.80
2019-05-29T10:22:12.776Z,15.70
2019-05-29T10:25:31.802Z,15.70
2019-05-29T10:28:55.347Z,15.40
2019-05-29T10:32:01.353Z,15.50
2019-05-29T10:35:10.293Z,15.70
2019-05-29T10:38:18.925Z,15.80
2019-05-29T10:41:28.647Z,15.90
2019-05-29T10:44:37.431Z,16.20
2019-05-29T10:47:47.310Z,16.40
2019-05-29T10:51:06.224Z,16.50
2019-05-29T10:54:15.455Z,16.60
2019-05-29T10:57:34.347Z,16.60
2019-05-29T11:00:42.989Z,16.70
2019-05-29T11:03:52.316Z,16.60
2019-05-29T11:07:01.936Z,16.30
2019-05-29T11:10:13.627Z,16.00
2019-05-29T11:13:22.306Z,15.90
2019-05-29T11:16:32.262Z,15.90
2019-05-29T11:19:51.282Z,15.90
2019-05-29T11:22:59.924Z,16.00
2019-05-29T11:26:08.625Z,15.90
2019-05-29T11:29:17.280Z,15.90
2019-05-29T11:32:26.002Z,15.90
2019-05-29T11:35:34.765Z,16.00
2019-05-29T11:38:43.805Z,16.10
2019-05-29T11:41:52.712Z,16.30
2019-05-29T11:45:03.753Z,16.30
2019-05-29T11:48:22.877Z,16.50
2019-05-29T11:51:44.222Z,16.80
2019-05-29T11:54:55.939Z,16.90
2019-05-29T11:58:02.427Z,16.80
2019-05-29T12:01:11.718Z,17.10
2019-05-29T12:04:26.387Z,17.30
2019-05-29T12:07:30.591Z,17.20
2019-05-29T12:10:39.185Z,17.10
2019-05-29T12:13:47.847Z,16.90
2019-05-29T12:16:58.067Z,16.90
2019-05-29T12:20:26.475Z,16.90
2019-05-29T12:23:26.137Z,16.90
2019-05-29T12:26:29.457Z,16.90
2019-05-29T12:29:38.147Z,16.70
2019-05-29T12:32:45.276Z,16.80
2019-05-29T12:35:54.866Z,17.30
2019-05-29T12:39:04.248Z,18.40
2019-05-29T12:42:13.317Z,18.90
2019-05-29T12:45:21.992Z,18.70
2019-05-29T12:48:30.646Z,18.10
2019-05-29T12:51:37.669Z,17.90
2019-05-29T12:54:46.325Z,17.90
2019-05-29T12:58:05.586Z,18.00
2019-05-29T13:01:13.213Z,18.60
2019-05-29T13:04:21.855Z,19.10
2019-05-29T13:07:30.592Z,19.40
2019-05-29T13:10:38.225Z,19.40
2019-05-29T13:13:46.848Z,19.50
2019-05-29T13:16:56.653Z,19.60
2019-05-29T13:20:31.223Z,19.80
2019-05-29T13:34:38.999Z,19.60
2019-05-29T13:37:50.696Z,19.30
2019-05-29T13:41:00.408Z,19.00
2019-05-29T13:44:09.351Z,18.60
2019-05-29T13:47:21.492Z,18.60
2019-05-29T13:50:30.129Z,18.60
2019-05-29T13:53:38.907Z,18.50
2019-05-29T13:56:47.832Z,18.40
2019-05-29T13:59:57.904Z,18.40
2019-05-29T14:03:07.639Z,18.40
2019-05-29T14:06:17.218Z,18.40
2019-05-29T14:09:25.933Z,18.30
2019-05-29T14:12:44.673Z,18.40
2019-05-29T14:15:53.229Z,18.20
2019-05-29T14:19:02.766Z,18.10
2019-05-29T14:22:11.537Z,18.10
2019-05-29T14:25:36.476Z,17.90
2019-05-29T14:28:45.115Z,17.90
2019-05-29T14:31:53.717Z,18.00
2019-05-29T14:35:04.258Z,18.30
2019-05-29T14:38:15.083Z,18.40
2019-05-29T14:41:23.052Z,18.30
2019-05-29T14:44:31.774Z,18.40
2019-05-29T14:47:40.546Z,18.20
2019-05-29T14:50:49.211Z,18.20
2019-05-29T14:53:58.007Z,18.10
2019-05-29T14:57:19.486Z,18.00
2019-05-29T15:00:25.176Z,18.10
2019-05-29T15:03:40.445Z,18.20
2019-05-29T15:06:49.012Z,18.20
2019-05-29T15:09:57.621Z,17.90
2019-05-29T15:13:06.734Z,17.80
2019-05-29T15:16:15.789Z,17.80
2019-05-29T15:19:24.381Z,17.90
2019-05-29T15:22:32.960Z,18.00
2019-05-29T15:25:41.571Z,18.00
2019-05-29T15:28:50.121Z,18.00
2019-05-29T15:31:58.789Z,18.10
2019-05-29T15:35:12.686Z,18.10
2019-05-29T15:38:18.483Z,18.10
2019-05-29T15:41:27.106Z,18.00
2019-05-29T15:44:35.887Z,17.80
2019-05-29T15:47:43.627Z,17.70
2019-05-29T15:50:52.760Z,17.60
2019-05-29T15:54:35.292Z,17.70
2019-05-29T15:57:44.076Z,17.70
2019-05-29T16:00:51.380Z,17.70
2019-05-29T16:04:00.195Z,17.70
2019-05-29T16:07:09.862Z,17.80
2019-05-29T16:10:20.881Z,17.80
2019-05-29T16:13:29.484Z,17.80
2019-05-29T16:16:38.036Z,17.70
2019-05-29T16:19:46.813Z,17.70
2019-05-29T16:22:57.223Z,17.80
2019-05-29T16:26:05.975Z,17.80
2019-05-29T16:29:16.387Z,17.80
2019-05-29T16:32:26.825Z,17.70
2019-05-29T16:35:37.415Z,17.60
2019-05-29T16:38:45.903Z,17.60
2019-05-29T16:41:54.461Z,17.40
2019-05-29T16:45:03.127Z,17.40
2019-05-29T16:48:25.963Z,17.30
2019-05-29T16:51:34.624Z,17.30
2019-05-29T16:54:43.371Z,17.30
2019-05-29T16:57:52.378Z,17.30
2019-05-29T17:01:00.946Z,17.40
2019-05-29T17:04:09.882Z,17.30
2019-05-29T17:07:18.560Z,17.20
2019-05-29T17:10:37.216Z,17.20
2019-05-29T17:13:45.785Z,17.30
2019-05-29T17:16:54.461Z,17.30
2019-05-29T17:20:03.401Z,17.30
2019-05-29T17:23:12.147Z,17.30
2019-05-29T17:26:20.841Z,17.20
2019-05-29T17:29:29.542Z,17.10
2019-05-29T17:32:38.181Z,17.00
2019-05-29T17:35:46.838Z,17.00
2019-05-29T17:38:55.661Z,17.00
2019-05-29T17:42:04.371Z,17.00
2019-05-29T17:45:14.118Z,17.00
2019-05-29T17:48:23.864Z,17.10
2019-05-29T17:51:32.606Z,17.00
2019-05-29T17:54:40.885Z,16.90
2019-05-29T17:58:03.624Z,16.80
2019-05-29T18:01:12.397Z,16.70
2019-05-29T18:04:22.469Z,16.60
2019-05-29T18:07:31.279Z,16.60
2019-05-29T18:10:39.818Z,16.60
2019-05-29T18:13:48.340Z,16.60
2019-05-29T18:16:56.866Z,16.60
2019-05-29T18:20:17.732Z,16.50
2019-05-29T18:23:36.640Z,16.60
2019-05-29T18:26:47.186Z,16.60
2019-05-29T18:29:55.468Z,16.60
2019-05-29T18:33:04.246Z,16.60
2019-05-29T18:36:12.864Z,16.50
2019-05-29T18:39:22.169Z,16.40
2019-05-29T18:42:30.977Z,16.40
2019-05-29T18:45:39.860Z,16.30
2019-05-29T18:48:49.027Z,16.30
2019-05-29T18:52:15.614Z,16.30
2019-05-29T18:55:25.334Z,16.30
2019-05-29T18:58:35.875Z,16.20
2019-05-29T19:01:45.987Z,16.20
2019-05-29T19:04:55.670Z,16.10
2019-05-29T19:08:05.653Z,16.10
2019-05-29T19:11:14.850Z,16.00
2019-05-29T19:14:25.821Z,16.00
2019-05-29T19:17:35.981Z,15.90
2019-05-29T19:20:56.653Z,15.80
2019-05-29T19:24:05.182Z,15.70
2019-05-29T19:27:12.749Z,15.70
2019-05-29T19:30:33.026Z,15.60
2019-05-29T19:33:41.981Z,15.50
2019-05-29T19:36:50.819Z,15.50
2019-05-29T19:39:59.926Z,15.40
2019-05-29T19:43:08.973Z,15.30
2019-05-29T19:46:28.583Z,15.20
2019-05-29T19:49:47.646Z,15.20
2019-05-29T19:53:07.182Z,15.10
2019-05-29T19:56:27.525Z,15.10
2019-05-29T19:59:36.388Z,15.10
2019-05-29T20:02:45.302Z,15.00
2019-05-29T20:05:55.056Z,14.90
2019-05-29T20:09:04.275Z,14.90
2019-05-29T20:12:12.148Z,14.70
2019-05-29T20:15:31.975Z,14.70
2019-05-29T20:18:41.225Z,14.70
2019-05-29T20:21:49.389Z,14.60
2019-05-29T20:25:09.008Z,14.60
2019-05-29T20:28:17.768Z,14.50
2019-05-29T20:31:26.288Z,14.50
2019-05-29T20:34:47.007Z,14.40
2019-05-29T20:38:06.729Z,14.40
2019-05-29T20:41:15.699Z,14.40
2019-05-29T20:44:24.837Z,14.40
2019-05-29T20:47:33.662Z,14.30
2019-05-29T20:50:43.327Z,14.30
2019-05-29T20:54:03.056Z,14.20
2019-05-29T20:57:12.339Z,14.10
2019-05-29T21:00:21.253Z,14.10
2019-05-29T21:03:30.617Z,14.00
2019-05-29T21:07:06.317Z,14.00
2019-05-29T21:10:15.700Z,13.90
2019-05-29T21:13:24.921Z,13.80
2019-05-29T21:16:34.059Z,13.80
2019-05-29T21:19:44.623Z,13.80
2019-05-29T21:22:53.420Z,13.80
2019-05-29T21:26:01.966Z,13.80
2019-05-29T21:29:10.540Z,13.80
2019-05-29T21:32:48.962Z,13.70
2019-05-29T21:35:57.508Z,13.60
2019-05-29T21:39:09.477Z,13.50
2019-05-29T21:42:18.012Z,13.50
2019-05-29T21:45:26.500Z,13.50
2019-05-29T21:48:35.036Z,13.50
2019-05-29T21:51:53.839Z,13.40
2019-05-29T21:55:02.380Z,13.40
2019-05-29T21:58:11.069Z,13.40
2019-05-29T22:01:18.307Z,13.40
2019-05-29T22:04:26.925Z,13.40
2019-05-29T22:07:35.718Z,13.40
2019-05-29T22:10:44.912Z,13.30
2019-05-29T22:13:54.404Z,13.30
2019-05-29T22:17:13.144Z,13.30
2019-05-29T22:20:21.719Z,13.10
2019-05-29T22:23:30.228Z,13.10
2019-05-29T22:26:38.750Z,13.20
2019-05-29T22:29:47.394Z,13.20
2019-05-29T22:33:06.220Z,13.10
2019-05-29T22:36:14.827Z,13.00
2019-05-29T22:39:23.508Z,12.90
2019-05-29T22:42:32.013Z,12.80
2019-05-29T22:45:40.640Z,12.80
2019-05-29T22:48:47.840Z,12.80
2019-05-29T22:51:56.441Z,12.80
2019-05-29T22:55:06.593Z,12.70
2019-05-29T22:58:27.516Z,12.80
2019-05-29T23:01:36.146Z,12.70
2019-05-29T23:04:44.684Z,12.70
2019-05-29T23:07:54.128Z,12.70
2019-05-29T23:11:13.168Z,12.70
2019-05-29T23:14:22.399Z,12.60
2019-05-29T23:17:31.102Z,12.60
2019-05-29T23:20:49.993Z,12.50
2019-05-29T23:24:09.260Z,12.60
2019-05-29T23:27:17.934Z,12.50
2019-05-29T23:30:29.767Z,12.50
2019-05-29T23:33:37.034Z,12.60
2019-05-29T23:36:45.664Z,12.60
2019-05-29T23:39:55.050Z,12.50
2019-05-29T23:43:03.732Z,12.40
2019-05-29T23:46:23.049Z,12.40
2019-05-29T23:49:33.114Z,12.30
2019-05-29T23:52:41.779Z,12.30
2019-05-29T23:55:50.444Z,12.30
2019-05-29T23:58:59.926Z,12.30
